Time;durP1;ratioP1;P1;durP2;ratioP2;P2;SDS_P1;SDS_P2;PMS_P1;PMS_P2;Temp;Humidity;BMP_temperature;BMP_pressure;BME280_temperature;BME280_humidity;BME280_pressure;Samples;Min_cycle;Max_cycle;Signal;HPM_P1;HPM_P2
2022/08/27 00:01:49;;;;;;;14.70;8.85;;;22.00;92.20;;;;;;5032308;28;20029;-72
2022/08/27 00:04:15;;;;;;;12.65;9.25;;;22.00;92.20;;;;;;5032286;28;20067;-71
2022/08/27 00:06:41;;;;;;;16.33;8.43;;;22.00;92.20;;;;;;5014635;28;20379;-72
2022/08/27 00:09:07;;;;;;;13.00;10.00;;;21.90;92.30;;;;;;5032462;28;20033;-72
2022/08/27 00:11:34;;;;;;;11.98;8.88;;;21.90;92.20;;;;;;5032375;28;20021;-72
2022/08/27 00:14:00;;;;;;;15.93;10.00;;;21.90;92.20;;;;;;5032257;28;20029;-72
2022/08/27 00:16:26;;;;;;;12.45;8.80;;;21.90;92.20;;;;;;5032366;28;20018;-72
2022/08/27 00:18:54;;;;;;;12.20;8.27;;;21.80;92.20;;;;;;5014733;28;20025;-72
2022/08/27 00:21:20;;;;;;;11.68;8.35;;;21.80;92.20;;;;;;5032022;28;20045;-72
2022/08/27 00:23:46;;;;;;;10.13;8.70;;;21.80;92.20;;;;;;5032370;28;20025;-72
2022/08/27 00:26:13;;;;;;;15.32;8.98;;;21.80;92.20;;;;;;5014447;28;20021;-72
2022/08/27 00:28:40;;;;;;;14.13;10.32;;;21.80;92.20;;;;;;5032059;28;20040;-72
2022/08/27 00:31:07;;;;;;;9.75;8.60;;;21.70;92.20;;;;;;5032209;28;20475;-72
2022/08/27 00:33:33;;;;;;;11.13;8.98;;;21.70;92.30;;;;;;5032792;28;20391;-72
2022/08/27 00:35:59;;;;;;;17.98;10.73;;;21.70;92.50;;;;;;5032217;28;20106;-71
2022/08/27 00:38:25;;;;;;;15.40;10.65;;;21.70;92.40;;;;;;5032164;28;20026;-71
2022/08/27 00:40:52;;;;;;;16.65;11.98;;;21.70;92.30;;;;;;5016044;28;20021;-71
2022/08/27 00:43:26;;;;;;;15.23;11.75;;;21.70;92.40;;;;;;5051000;28;20433;-71
2022/08/27 00:45:57;;;;;;;19.08;12.18;;;21.70;92.60;;;;;;5054110;28;20042;-71
2022/08/27 00:48:27;;;;;;;22.33;11.95;;;21.70;92.60;;;;;;5053614;28;20482;-72
2022/08/27 00:50:54;;;;;;;13.95;11.73;;;21.70;92.60;;;;;;5053200;28;20367;-72
2022/08/27 00:53:24;;;;;;;15.93;11.40;;;21.70;92.70;;;;;;5052933;28;20428;-72
2022/08/27 00:55:57;;;;;;;21.13;11.68;;;21.80;92.80;;;;;;5029514;28;20063;-71
2022/08/27 00:58:32;;;;;;;12.82;10.25;;;21.70;92.80;;;;;;5052484;28;20017;-72
2022/08/27 01:00:59;;;;;;;14.98;12.05;;;21.80;92.90;;;;;;5052551;28;20028;-72
2022/08/27 01:03:26;;;;;;;13.13;9.98;;;21.80;92.90;;;;;;5052346;28;20040;-73
2022/08/27 01:05:55;;;;;;;15.45;11.20;;;21.90;92.90;;;;;;5052296;28;20159;-73
2022/08/27 01:08:24;;;;;;;11.15;9.05;;;21.90;93.00;;;;;;5052312;28;20032;-73
2022/08/27 01:10:51;;;;;;;13.23;10.45;;;21.90;93.00;;;;;;5052290;28;20052;-72
2022/08/27 01:13:20;;;;;;;18.60;11.98;;;21.90;93.10;;;;;;5035206;28;20112;-73
2022/08/27 01:15:46;;;;;;;14.13;11.13;;;21.90;93.10;;;;;;5014605;28;20033;-73
2022/08/27 01:18:13;;;;;;;16.65;11.07;;;21.90;93.20;;;;;;5032242;28;20021;-73
2022/08/27 01:20:46;;;;;;;13.40;9.80;;;22.00;93.20;;;;;;5032263;28;20100;-73
2022/08/27 01:23:36;;;;;;;12.60;9.83;;;22.00;93.40;;;;;;5032187;28;20034;-73
2022/08/27 01:26:05;;;;;;;17.67;11.35;;;22.00;93.50;;;;;;5032245;28;20018;-73
2022/08/27 01:28:31;;;;;;;15.60;10.98;;;22.10;93.20;;;;;;5032110;28;20022;-73
2022/08/27 01:30:57;;;;;;;17.33;11.13;;;22.10;93.20;;;;;;5014491;28;20029;-73
2022/08/27 01:33:23;;;;;;;11.23;9.55;;;22.10;93.30;;;;;;5032207;28;20073;-73
2022/08/27 01:35:51;;;;;;;16.77;10.10;;;22.10;93.30;;;;;;5030508;28;20038;-73
2022/08/27 01:38:17;;;;;;;15.23;10.13;;;22.20;93.30;;;;;;5031695;28;20029;-73
2022/08/27 01:40:44;;;;;;;15.07;10.82;;;22.20;93.20;;;;;;5032124;28;20093;-73
2022/08/27 01:43:10;;;;;;;15.40;9.57;;;22.20;93.10;;;;;;5032073;28;20076;-73
2022/08/27 01:45:39;;;;;;;16.15;10.60;;;22.20;93.20;;;;;;5032124;28;20429;-74
2022/08/27 01:48:06;;;;;;;12.50;10.43;;;22.20;93.10;;;;;;5030736;28;20021;-73
2022/08/27 01:50:36;;;;;;;15.00;11.43;;;22.20;93.00;;;;;;5015842;28;20487;-73
2022/08/27 01:53:05;;;;;;;18.75;9.93;;;22.20;92.90;;;;;;5035806;28;20104;-73
2022/08/27 01:55:31;;;;;;;18.33;10.55;;;22.20;93.00;;;;;;5035800;28;20021;-73
2022/08/27 01:57:57;;;;;;;14.18;10.80;;;22.20;93.00;;;;;;5035690;28;20076;-73
2022/08/27 02:00:29;;;;;;;13.68;10.57;;;22.20;93.10;;;;;;5035706;28;20021;-73
2022/08/27 02:02:56;;;;;;;13.55;10.63;;;22.20;93.10;;;;;;5035661;28;20026;-73
2022/08/27 02:05:22;;;;;;;17.85;12.20;;;22.30;93.10;;;;;;5043091;28;20071;-73
2022/08/27 02:07:49;;;;;;;15.60;12.30;;;22.20;92.90;;;;;;5037493;28;20414;-73
2022/08/27 02:10:20;;;;;;;17.98;11.98;;;22.20;92.80;;;;;;5055289;28;20060;-73
2022/08/27 02:12:46;;;;;;;18.50;11.48;;;22.20;92.60;;;;;;5055300;28;20029;-73
2022/08/27 02:15:11;;;;;;;16.52;11.73;;;22.20;92.60;;;;;;5055253;28;20024;-73
2022/08/27 02:17:37;;;;;;;17.50;13.48;;;22.20;92.50;;;;;;5055055;28;20108;-73
2022/08/27 02:20:08;;;;;;;15.18;11.00;;;22.20;92.40;;;;;;5055148;28;20024;-73
2022/08/27 02:22:34;;;;;;;19.95;11.68;;;22.10;92.30;;;;;;5054958;28;20145;-73
2022/08/27 02:25:00;;;;;;;20.73;12.70;;;22.10;92.30;;;;;;5052949;28;20020;-73
2022/08/27 02:27:26;;;;;;;16.40;12.05;;;22.10;92.30;;;;;;5033787;28;20044;-73
2022/08/27 02:29:54;;;;;;;17.85;12.65;;;22.00;92.20;;;;;;5035021;28;20021;-73
2022/08/27 02:32:21;;;;;;;18.92;12.95;;;22.00;92.30;;;;;;5017219;28;20033;-73
2022/08/27 02:34:47;;;;;;;15.90;12.13;;;22.00;92.30;;;;;;5036097;28;20033;-73
2022/08/27 02:37:14;;;;;;;16.83;12.70;;;22.00;92.30;;;;;;5036824;28;20033;-73
2022/08/27 02:39:40;;;;;;;18.40;13.57;;;22.00;92.30;;;;;;5054758;28;20029;-73
2022/08/27 02:42:07;;;;;;;18.77;13.55;;;22.00;92.40;;;;;;5054769;28;20013;-73
2022/08/27 02:44:34;;;;;;;18.20;13.63;;;22.00;92.50;;;;;;5054674;28;20017;-73
2022/08/27 02:47:03;;;;;;;17.85;13.65;;;21.90;92.20;;;;;;5054675;28;20021;-73
2022/08/27 02:49:29;;;;;;;18.73;12.32;;;21.90;92.30;;;;;;5054554;28;20428;-73
2022/08/27 02:51:56;;;;;;;19.05;12.38;;;21.90;92.80;;;;;;5054586;28;20083;-73
2022/08/27 02:54:23;;;;;;;15.77;11.25;;;22.00;92.60;;;;;;5054486;28;20025;-73
2022/08/27 02:56:51;;;;;;;14.43;11.98;;;22.00;92.70;;;;;;5046812;28;20033;-73
2022/08/27 02:59:17;;;;;;;21.42;12.93;;;22.00;92.60;;;;;;5054284;28;20017;-73
2022/08/27 03:01:43;;;;;;;16.13;12.23;;;22.00;92.60;;;;;;5053651;28;20024;-73
2022/08/27 03:04:09;;;;;;;14.73;11.20;;;22.00;92.60;;;;;;5054230;28;20025;-73
2022/08/27 03:06:35;;;;;;;22.23;14.23;;;22.00;92.80;;;;;;5018663;28;20029;-73
2022/08/27 03:09:00;;;;;;;22.63;14.13;;;22.00;92.50;;;;;;5032837;28;20501;-73
2022/08/27 03:11:26;;;;;;;19.27;14.20;;;22.00;92.40;;;;;;5034107;28;20032;-73
2022/08/27 03:13:52;;;;;;;23.63;12.95;;;22.00;92.20;;;;;;5034035;28;20536;-73
2022/08/27 03:16:18;;;;;;;19.10;12.55;;;22.00;92.40;;;;;;5034012;28;20033;-73
2022/08/27 03:18:44;;;;;;;15.85;11.07;;;22.00;92.50;;;;;;5033834;28;20375;-73
2022/08/27 03:21:19;;;;;;;14.82;11.85;;;22.00;92.70;;;;;;5033665;28;20026;-73
2022/08/27 03:23:47;;;;;;;16.65;12.27;;;22.00;92.80;;;;;;5033818;28;20018;-73
2022/08/27 03:26:13;;;;;;;15.13;11.48;;;22.10;92.70;;;;;;5033917;28;20013;-73
2022/08/27 03:28:40;;;;;;;19.85;12.93;;;22.00;92.70;;;;;;5033849;28;20434;-73
2022/08/27 03:31:12;;;;;;;17.42;12.30;;;22.00;92.70;;;;;;5033813;28;20025;-73
2022/08/27 03:33:39;;;;;;;15.52;12.80;;;22.10;92.70;;;;;;5033792;28;20078;-73
2022/08/27 03:36:06;;;;;;;15.65;13.07;;;22.10;92.70;;;;;;5034568;28;20033;-73
2022/08/27 03:38:32;;;;;;;18.27;13.98;;;22.10;92.60;;;;;;5033361;28;20398;-73
2022/08/27 03:40:58;;;;;;;14.98;12.60;;;22.10;92.50;;;;;;5032283;28;20018;-73
2022/08/27 03:43:24;;;;;;;23.35;13.93;;;22.10;92.60;;;;;;5033507;28;20025;-73
2022/08/27 03:45:51;;;;;;;15.95;12.98;;;22.10;92.50;;;;;;5033392;28;20013;-73
2022/08/27 03:48:17;;;;;;;14.88;13.25;;;22.10;92.50;;;;;;5033409;28;20026;-73
2022/08/27 03:50:45;;;;;;;22.60;14.70;;;22.10;92.60;;;;;;5015599;28;20120;-73
2022/08/27 03:53:13;;;;;;;16.83;12.57;;;22.10;92.50;;;;;;5033352;28;20112;-73
2022/08/27 03:55:40;;;;;;;27.33;16.13;;;22.10;92.60;;;;;;5033320;28;20479;-73
2022/08/27 03:58:08;;;;;;;19.20;14.52;;;22.10;92.20;;;;;;5033746;28;20113;-73
2022/08/27 04:00:33;;;;;;;17.92;12.82;;;22.10;92.30;;;;;;5033298;28;20080;-73
2022/08/27 04:02:59;;;;;;;16.55;13.90;;;22.10;92.40;;;;;;5015636;28;20021;-74
2022/08/27 04:05:25;;;;;;;17.25;13.02;;;22.10;92.40;;;;;;5039905;28;20100;-73
2022/08/27 04:07:51;;;;;;;18.67;13.70;;;22.10;92.40;;;;;;5035426;28;20471;-73
2022/08/27 04:10:17;;;;;;;20.13;14.48;;;22.10;92.40;;;;;;5035370;28;20025;-73
2022/08/27 04:12:44;;;;;;;16.50;13.20;;;22.10;92.40;;;;;;5035262;28;20479;-73
2022/08/27 04:15:11;;;;;;;17.20;13.07;;;22.10;92.40;;;;;;5052484;28;20112;-73
2022/08/27 04:17:37;;;;;;;16.75;13.00;;;22.10;92.30;;;;;;5053083;28;20021;-73
2022/08/27 04:20:05;;;;;;;18.10;14.10;;;22.10;92.30;;;;;;5053112;28;20039;-73
2022/08/27 04:22:32;;;;;;;15.68;11.68;;;22.10;92.30;;;;;;5048210;28;20117;-73
2022/08/27 04:24:59;;;;;;;13.90;11.45;;;22.10;92.30;;;;;;5015493;28;20032;-73
2022/08/27 04:27:26;;;;;;;16.52;12.45;;;22.10;92.30;;;;;;5031897;28;20029;-73
2022/08/27 04:29:57;;;;;;;19.02;12.18;;;22.10;92.20;;;;;;5035748;28;20043;-73
2022/08/27 04:32:24;;;;;;;14.65;11.75;;;22.10;92.20;;;;;;5032714;28;20022;-73
2022/08/27 04:34:57;;;;;;;16.00;11.70;;;22.00;92.10;;;;;;5034734;28;20471;-73
2022/08/27 04:37:24;;;;;;;18.25;11.95;;;22.00;92.10;;;;;;5034727;28;20084;-73
2022/08/27 04:39:50;;;;;;;17.23;12.43;;;22.00;92.00;;;;;;5032756;28;20032;-73
2022/08/27 04:42:18;;;;;;;18.63;12.45;;;22.00;91.90;;;;;;5032770;28;20293;-73
2022/08/27 04:44:45;;;;;;;15.50;11.63;;;22.00;91.80;;;;;;5032681;28;20022;-73
2022/08/27 04:47:12;;;;;;;17.15;12.27;;;22.00;91.80;;;;;;5014970;28;20075;-73
2022/08/27 04:49:38;;;;;;;17.30;12.32;;;22.00;91.80;;;;;;5032636;28;20022;-73
2022/08/27 04:52:04;;;;;;;16.17;11.23;;;22.00;91.80;;;;;;5032556;28;20207;-73
2022/08/27 04:54:31;;;;;;;17.02;12.25;;;22.00;91.80;;;;;;5052580;28;20021;-74
2022/08/27 04:56:56;;;;;;;14.75;11.10;;;22.00;91.70;;;;;;5028528;28;20120;-73
2022/08/27 04:59:22;;;;;;;16.27;12.13;;;22.00;92.00;;;;;;5052713;28;20096;-73
2022/08/27 05:01:48;;;;;;;24.92;13.10;;;21.90;91.60;;;;;;5052584;28;20446;-73
2022/08/27 05:04:17;;;;;;;14.88;10.43;;;21.90;91.80;;;;;;5052565;28;20048;-73
2022/08/27 05:06:44;;;;;;;17.65;12.13;;;21.90;91.60;;;;;;5017582;28;20143;-73
2022/08/27 05:09:12;;;;;;;17.65;10.48;;;21.90;91.60;;;;;;5033309;28;20490;-73
2022/08/27 05:11:38;;;;;;;15.00;10.10;;;22.00;91.80;;;;;;5032460;28;20036;-74
2022/08/27 05:14:07;;;;;;;15.02;9.90;;;22.00;91.80;;;;;;5032743;28;20029;-73
2022/08/27 05:16:35;;;;;;;15.82;9.77;;;22.00;91.70;;;;;;5032322;28;20156;-73
2022/08/27 05:19:02;;;;;;;15.02;10.07;;;22.00;91.40;;;;;;5031024;28;20022;-74
2022/08/27 05:21:31;;;;;;;11.80;9.07;;;22.00;91.00;;;;;;5032142;28;20109;-73
2022/08/27 05:23:59;;;;;;;18.10;10.00;;;22.00;91.10;;;;;;5033312;28;20404;-73
2022/08/27 05:26:26;;;;;;;15.00;9.95;;;22.00;91.00;;;;;;5055341;28;20067;-73
2022/08/27 05:28:53;;;;;;;14.63;9.77;;;22.00;90.80;;;;;;5056142;28;20363;-73
2022/08/27 05:31:21;;;;;;;12.20;8.95;;;22.00;91.00;;;;;;5055940;28;20033;-73
2022/08/27 05:33:48;;;;;;;13.27;10.27;;;22.10;91.30;;;;;;5024466;28;20032;-73
2022/08/27 05:36:28;;;;;;;11.75;9.48;;;22.10;91.20;;;;;;5035131;28;20546;-73
2022/08/27 05:38:56;;;;;;;14.13;9.75;;;22.20;91.40;;;;;;5034451;28;20038;-73
2022/08/27 05:41:28;;;;;;;14.18;10.57;;;22.20;91.50;;;;;;5031973;28;20432;-73
2022/08/27 05:43:56;;;;;;;11.65;9.02;;;22.20;91.20;;;;;;5016670;28;20056;-73
2022/08/27 05:46:24;;;;;;;19.48;10.63;;;22.30;91.50;;;;;;5031960;28;20026;-73
2022/08/27 05:48:50;;;;;;;13.07;9.55;;;22.40;91.60;;;;;;5034385;28;20025;-73
2022/08/27 05:51:17;;;;;;;15.05;10.52;;;22.50;91.80;;;;;;5016606;28;20479;-73
2022/08/27 05:53:43;;;;;;;14.23;10.88;;;22.60;91.80;;;;;;5030606;28;20032;-73
2022/08/27 05:56:17;;;;;;;15.90;11.00;;;22.70;92.00;;;;;;5034247;28;20059;-73
2022/08/27 06:01:29;;;;;;;15.68;12.23;;;22.70;91.30;;;;;;5033857;28;20045;-73
2022/08/27 06:03:55;;;;;;;15.23;11.70;;;22.80;90.80;;;;;;5017404;28;20387;-73
2022/08/27 06:06:24;;;;;;;13.60;11.98;;;22.80;90.60;;;;;;5018059;28;20046;-73
2022/08/27 06:08:52;;;;;;;18.70;11.18;;;22.80;90.60;;;;;;5033276;28;20052;-73
2022/08/27 06:11:18;;;;;;;19.10;10.45;;;22.90;90.40;;;;;;5032220;28;20386;-73
2022/08/27 06:13:45;;;;;;;13.00;11.07;;;23.00;90.80;;;;;;5034938;28;20104;-73
2022/08/27 06:16:15;;;;;;;13.45;10.15;;;23.10;91.00;;;;;;5034904;28;20087;-73
2022/08/27 06:18:43;;;;;;;15.05;10.68;;;23.20;91.20;;;;;;5035051;28;20030;-73
2022/08/27 06:21:09;;;;;;;12.88;10.82;;;23.40;91.60;;;;;;5039307;28;20053;-73
2022/08/27 06:23:35;;;;;;;18.50;10.85;;;23.50;91.10;;;;;;5041401;28;20060;-73
2022/08/27 06:26:04;;;;;;;15.10;10.82;;;23.70;90.80;;;;;;5035679;28;20029;-73
2022/08/27 06:28:30;;;;;;;14.82;11.00;;;23.80;90.60;;;;;;5055119;28;20029;-73
2022/08/27 06:31:12;;;;;;;16.33;11.38;;;23.90;89.70;;;;;;5052980;28;20037;-73
2022/08/27 06:33:39;;;;;;;15.95;10.75;;;24.00;87.20;;;;;;5055384;28;20037;-73
2022/08/27 06:36:08;;;;;;;16.80;12.30;;;24.10;85.80;;;;;;5035867;28;20060;-73
2022/08/27 06:38:34;;;;;;;13.43;9.73;;;24.10;82.80;;;;;;5054325;28;20021;-72
2022/08/27 06:41:03;;;;;;;13.05;9.50;;;24.20;82.90;;;;;;5054908;28;20013;-73
2022/08/27 06:43:29;;;;;;;13.60;10.73;;;24.10;81.60;;;;;;5054851;28;20028;-73
2022/08/27 06:45:55;;;;;;;14.18;10.38;;;24.10;80.90;;;;;;5037134;28;20494;-73
2022/08/27 06:48:20;;;;;;;13.18;9.65;;;24.10;81.10;;;;;;5029431;28;20025;-73
2022/08/27 06:50:46;;;;;;;14.20;10.35;;;24.00;80.30;;;;;;5027097;28;20083;-72
2022/08/27 06:53:12;;;;;;;13.30;9.25;;;24.00;80.40;;;;;;5034725;28;20032;-72
2022/08/27 06:55:43;;;;;;;14.77;10.23;;;24.00;81.50;;;;;;5040944;28;20031;-72
2022/08/27 06:58:09;;;;;;;13.25;10.05;;;23.90;80.10;;;;;;5043181;28;20052;-72
2022/08/27 07:00:35;;;;;;;12.95;9.60;;;23.90;80.00;;;;;;5054362;28;20440;-72
2022/08/27 07:03:02;;;;;;;13.88;9.25;;;23.90;79.50;;;;;;5046344;28;20028;-72
2022/08/27 07:05:28;;;;;;;13.30;10.13;;;23.90;79.60;;;;;;5034633;28;20028;-72
2022/08/27 07:07:54;;;;;;;10.95;8.38;;;24.00;80.00;;;;;;5034442;28;20025;-71
2022/08/27 07:10:20;;;;;;;13.65;10.73;;;24.00;81.10;;;;;;5034358;28;20030;-72
2022/08/27 07:12:45;;;;;;;15.45;9.65;;;24.10;82.40;;;;;;5033029;28;20473;-72
2022/08/27 07:15:11;;;;;;;11.68;8.82;;;24.10;81.50;;;;;;5034371;28;20494;-72
2022/08/27 07:17:39;;;;;;;11.68;8.43;;;24.10;80.80;;;;;;5034195;28;20478;-72
2022/08/27 07:20:07;;;;;;;11.73;9.55;;;24.20;81.60;;;;;;5033506;28;20022;-72
2022/08/27 07:22:32;;;;;;;11.68;8.52;;;24.30;80.10;;;;;;5016271;28;20573;-72
2022/08/27 07:24:58;;;;;;;14.68;8.43;;;24.40;79.70;;;;;;5034410;28;20029;-72
2022/08/27 07:27:24;;;;;;;15.93;9.55;;;24.40;80.20;;;;;;5032860;28;20037;-72
2022/08/27 07:29:50;;;;;;;14.18;8.38;;;24.40;77.00;;;;;;5034016;28;20079;-72
2022/08/27 07:32:16;;;;;;;13.50;8.23;;;24.50;76.30;;;;;;5034130;28;20025;-72
2022/08/27 07:34:42;;;;;;;10.23;7.70;;;24.60;77.60;;;;;;5033917;28;20028;-72
2022/08/27 07:37:08;;;;;;;8.35;7.40;;;24.60;78.70;;;;;;5036613;28;20026;-72
2022/08/27 07:39:34;;;;;;;9.52;7.30;;;24.80;79.20;;;;;;5033812;28;20067;-72
2022/08/27 07:44:44;;;;;;;13.50;8.32;;;24.90;76.80;;;;;;5033650;28;20032;-72
2022/08/27 07:47:09;;;;;;;13.88;7.85;;;25.00;73.70;;;;;;5033721;28;20414;-72
2022/08/27 07:49:36;;;;;;;11.35;7.53;;;25.10;73.40;;;;;;5032539;28;20103;-71
2022/08/27 07:52:03;;;;;;;9.93;6.85;;;25.10;73.10;;;;;;5033561;28;20017;-71
2022/08/27 07:54:29;;;;;;;9.27;7.15;;;25.20;74.10;;;;;;5032288;28;20391;-71
2022/08/27 07:56:55;;;;;;;17.65;8.07;;;25.30;73.70;;;;;;5033463;28;20026;-71
2022/08/27 07:59:22;;;;;;;9.55;6.18;;;25.30;71.10;;;;;;5033325;28;20080;-71
2022/08/27 08:01:47;;;;;;;10.27;7.10;;;25.40;71.30;;;;;;5032025;28;20022;-71
2022/08/27 08:04:14;;;;;;;15.48;8.10;;;25.50;72.70;;;;;;5031985;28;20076;-70
2022/08/27 08:06:40;;;;;;;12.38;7.35;;;25.50;71.10;;;;;;5029481;28;20040;-70
2022/08/27 08:09:07;;;;;;;14.00;8.27;;;25.60;70.70;;;;;;5053191;28;20386;-71
2022/08/27 08:11:33;;;;;;;10.88;6.95;;;25.50;68.10;;;;;;5053128;28;20028;-71
2022/08/27 08:14:00;;;;;;;12.50;7.35;;;25.60;69.40;;;;;;5053110;28;20476;-70
2022/08/27 08:16:27;;;;;;;9.73;7.60;;;25.60;70.60;;;;;;5051959;28;20028;-71
2022/08/27 08:18:53;;;;;;;13.10;7.72;;;25.60;70.20;;;;;;5033013;28;20024;-71
2022/08/27 08:21:18;;;;;;;11.35;7.95;;;25.70;72.00;;;;;;5032941;28;20131;-71
2022/08/27 08:23:46;;;;;;;9.02;6.90;;;25.70;70.40;;;;;;5032982;28;20021;-72
2022/08/27 08:26:12;;;;;;;12.25;6.80;;;25.80;69.90;;;;;;5033068;28;20467;-70
2022/08/27 08:28:38;;;;;;;8.60;6.43;;;25.90;69.90;;;;;;5032946;28;20475;-70
2022/08/27 08:31:05;;;;;;;9.77;5.85;;;26.00;67.80;;;;;;5032837;28;20026;-71
2022/08/27 08:33:31;;;;;;;10.25;5.72;;;26.00;66.90;;;;;;5032928;28;20112;-71
2022/08/27 08:36:11;;;;;;;11.02;6.45;;;26.00;66.40;;;;;;5040880;28;20505;-70
2022/08/27 08:38:38;;;;;;;11.95;6.90;;;26.10;68.20;;;;;;5034901;28;20082;-71
2022/08/27 08:41:06;;;;;;;9.15;6.45;;;26.20;65.10;;;;;;5052716;28;20091;-71
2022/08/27 08:43:37;;;;;;;10.38;5.88;;;26.20;63.90;;;;;;5052281;28;20027;-71
2022/08/27 08:46:36;;;;;;;9.45;5.70;;;26.20;61.90;;;;;;5034759;28;20163;-71
2022/08/27 08:49:16;;;;;;;13.07;7.28;;;26.20;62.00;;;;;;5034674;28;20036;-71
2022/08/27 08:51:42;;;;;;;14.00;6.80;;;26.20;61.50;;;;;;5052608;28;20021;-72
2022/08/27 08:54:14;;;;;;;8.07;6.43;;;26.20;60.90;;;;;;5052637;28;20036;-71
2022/08/27 08:56:58;;;;;;;7.57;6.68;;;26.20;61.70;;;;;;5052484;28;20070;-70
2022/08/27 08:59:55;;;;;;;7.93;6.40;;;26.20;63.40;;;;;;5052510;28;20025;-70
2022/08/27 09:02:21;;;;;;;10.82;6.38;;;26.30;65.10;;;;;;5055815;28;20090;-68
2022/08/27 09:04:47;;;;;;;11.55;6.20;;;26.40;63.10;;;;;;5056579;28;20025;-69
2022/08/27 09:07:44;;;;;;;9.95;5.97;;;26.50;64.50;;;;;;5037622;28;20100;-70
2022/08/27 09:10:19;;;;;;;12.43;5.57;;;26.60;63.10;;;;;;5036629;28;20049;-70
2022/08/27 09:12:45;;;;;;;9.38;5.90;;;26.60;63.50;;;;;;5036603;28;20021;-69
2022/08/27 09:15:20;;;;;;;9.27;6.18;;;26.70;63.80;;;;;;5036206;28;20022;-70
2022/08/27 09:17:47;;;;;;;8.35;6.32;;;26.80;61.40;;;;;;5036445;28;20026;-70
2022/08/27 09:20:16;;;;;;;8.88;5.95;;;26.90;62.60;;;;;;5030768;28;20524;-72
2022/08/27 09:23:10;;;;;;;7.93;5.78;;;26.90;59.10;;;;;;5021831;28;20050;-71
2022/08/27 09:25:40;;;;;;;9.48;5.43;;;26.90;58.50;;;;;;5021097;28;20025;-71
2022/08/27 09:29:14;;;;;;;8.88;5.35;;;27.00;59.50;;;;;;5036231;28;20483;-69
2022/08/27 09:31:09;;;;;;;7.85;5.63;;;27.10;60.70;;;;;;5035989;28;20036;-71
2022/08/27 09:33:36;;;;;;;8.55;5.55;;;27.10;60.60;;;;;;5036154;28;20032;-71
2022/08/27 09:36:06;;;;;;;9.57;6.43;;;27.30;60.50;;;;;;5036923;28;20056;-70
2022/08/27 09:38:34;;;;;;;7.53;5.13;;;27.30;59.60;;;;;;5035768;28;20033;-71
2022/08/27 09:41:08;;;;;;;6.00;5.20;;;27.40;58.30;;;;;;5035987;28;20037;-72
2022/08/27 09:43:35;;;;;;;7.88;5.53;;;27.40;58.90;;;;;;5036018;28;20383;-69
2022/08/27 09:46:21;;;;;;;8.10;5.32;;;27.50;59.10;;;;;;5035847;28;20021;-71
2022/08/27 09:48:47;;;;;;;7.65;5.13;;;27.50;57.80;;;;;;5036732;28;20061;-67
2022/08/27 09:51:18;;;;;;;8.32;5.97;;;27.70;58.50;;;;;;5035799;28;20510;-67
2022/08/27 09:53:51;;;;;;;11.57;6.45;;;27.70;57.20;;;;;;5035946;28;20025;-71
2022/08/27 09:56:39;;;;;;;5.78;5.07;;;27.70;57.30;;;;;;5018175;28;20031;-71
2022/08/27 09:59:23;;;;;;;10.00;6.70;;;27.80;58.20;;;;;;5034533;28;20055;-69
2022/08/27 10:01:51;;;;;;;10.88;5.70;;;27.80;55.70;;;;;;5035817;28;20120;-70
2022/08/27 10:04:25;;;;;;;8.38;6.65;;;27.70;55.40;;;;;;5035781;28;20022;-70
2022/08/27 10:06:51;;;;;;;8.80;5.85;;;27.70;55.50;;;;;;5034199;28;20495;-70
2022/08/27 10:09:29;;;;;;;7.97;5.90;;;27.70;56.30;;;;;;5035580;28;20076;-70
2022/08/27 10:12:01;;;;;;;10.38;6.20;;;27.70;56.70;;;;;;5034234;28;20022;-70
2022/08/27 10:14:41;;;;;;;7.80;5.30;;;27.70;57.80;;;;;;5035434;28;20017;-71
2022/08/27 10:17:22;;;;;;;11.23;5.75;;;27.70;57.30;;;;;;5035533;28;20553;-69
2022/08/27 10:19:59;;;;;;;9.55;5.72;;;27.60;56.70;;;;;;5035465;28;20079;-71
2022/08/27 10:22:52;;;;;;;9.43;5.72;;;27.50;55.80;;;;;;5035346;28;20413;-69
2022/08/27 10:25:49;;;;;;;12.32;5.50;;;27.40;56.60;;;;;;5035457;28;20152;-69
2022/08/27 10:28:15;;;;;;;9.07;5.53;;;27.40;56.20;;;;;;5035316;28;20105;-67
2022/08/27 10:30:47;;;;;;;11.48;5.53;;;27.30;56.10;;;;;;5035261;28;20021;-70
2022/08/27 10:33:51;;;;;;;8.10;5.63;;;27.20;55.70;;;;;;5035214;28;20029;-70
2022/08/27 10:36:22;;;;;;;7.43;4.88;;;27.20;56.90;;;;;;5034957;28;20514;-70
2022/08/27 10:39:15;;;;;;;8.73;5.70;;;27.20;57.10;;;;;;5054940;28;20036;-71
2022/08/27 10:42:10;;;;;;;9.73;4.28;;;27.10;55.70;;;;;;5054993;28;20386;-69
2022/08/27 10:44:54;;;;;;;6.93;5.10;;;27.10;56.30;;;;;;5000889;28;20519;-70
2022/08/27 10:47:58;;;;;;;5.47;4.88;;;27.10;56.70;;;;;;5054841;28;20021;-70
2022/08/27 10:50:28;;;;;;;9.50;5.15;;;27.10;57.90;;;;;;5016452;28;20483;-69
2022/08/27 10:53:00;;;;;;;8.73;5.68;;;27.10;57.50;;;;;;5054799;28;20025;-69
2022/08/27 10:55:40;;;;;;;7.90;5.20;;;27.10;57.10;;;;;;5036959;28;20051;-69
2022/08/27 10:58:35;;;;;;;5.65;4.60;;;27.30;57.70;;;;;;5054587;28;20429;-70
2022/08/27 11:01:31;;;;;;;7.60;4.75;;;27.30;57.20;;;;;;5054692;28;20435;-69
2022/08/27 11:04:14;;;;;;;8.07;5.05;;;27.50;58.10;;;;;;5054567;28;20049;-68
2022/08/27 11:06:52;;;;;;;8.27;4.83;;;27.60;56.80;;;;;;5041513;28;20526;-69
2022/08/27 11:09:44;;;;;;;5.40;4.57;;;27.70;58.30;;;;;;5016854;28;20072;-68
2022/08/27 11:12:14;;;;;;;7.78;4.68;;;27.70;56.80;;;;;;5034298;28;20076;-68
2022/08/27 11:14:51;;;;;;;8.20;4.50;;;27.90;57.40;;;;;;5034414;28;20040;-70
2022/08/27 11:17:34;;;;;;;6.63;4.60;;;28.00;56.00;;;;;;5034306;28;20079;-69
2022/08/27 11:20:07;;;;;;;9.45;4.50;;;28.10;57.70;;;;;;5034369;28;20022;-69
2022/08/27 11:22:51;;;;;;;9.55;4.70;;;28.20;57.00;;;;;;5032386;28;20045;-69
2022/08/27 11:25:50;;;;;;;7.43;4.13;;;28.40;56.80;;;;;;5016464;28;20025;-69
2022/08/27 11:28:20;;;;;;;4.65;3.88;;;28.60;56.30;;;;;;5034220;28;20106;-70
2022/08/27 11:31:02;;;;;;;11.73;4.47;;;28.70;56.50;;;;;;5034170;28;20059;-68
2022/08/27 11:33:36;;;;;;;10.43;4.65;;;28.80;54.70;;;;;;5034118;28;20021;-69
2022/08/27 11:36:34;;;;;;;5.75;4.70;;;28.90;54.00;;;;;;5040559;28;20036;-67
2022/08/27 11:39:38;;;;;;;10.05;4.80;;;28.90;54.10;;;;;;5027152;28;20041;-67
2022/08/27 11:42:12;;;;;;;7.03;4.40;;;29.00;54.50;;;;;;5053889;28;20029;-69
2022/08/27 11:44:41;;;;;;;7.60;4.75;;;29.00;54.60;;;;;;5053852;28;20021;-69
2022/08/27 11:47:17;;;;;;;6.78;4.40;;;29.10;52.70;;;;;;5053734;28;20021;-68
2022/08/27 11:49:48;;;;;;;6.25;4.13;;;29.10;52.30;;;;;;5053779;28;20071;-68
2022/08/27 11:52:34;;;;;;;6.78;4.30;;;29.00;52.80;;;;;;5053663;28;20498;-68
2022/08/27 11:55:13;;;;;;;8.10;4.65;;;29.00;53.60;;;;;;5053514;28;20078;-68
2022/08/27 11:57:39;;;;;;;6.47;4.43;;;29.00;52.70;;;;;;5053536;28;20382;-68
2022/08/27 12:00:27;;;;;;;6.85;3.90;;;29.00;52.70;;;;;;5053524;28;20017;-69
2022/08/27 12:03:18;;;;;;;6.82;4.15;;;28.90;52.50;;;;;;5053551;28;20077;-69
2022/08/27 12:05:47;;;;;;;7.60;4.53;;;28.80;52.30;;;;;;5041820;28;20109;-69
2022/08/27 12:08:25;;;;;;;6.95;4.25;;;28.80;52.40;;;;;;5032033;28;20478;-70
2022/08/27 12:11:10;;;;;;;10.13;4.20;;;28.80;52.90;;;;;;5033357;28;20087;-69
2022/08/27 12:13:48;;;;;;;10.77;3.78;;;28.70;51.80;;;;;;5033402;28;20021;-69
2022/08/27 12:16:40;;;;;;;9.00;4.45;;;28.70;52.70;;;;;;5033375;28;20076;-69
2022/08/27 12:19:36;;;;;;;5.38;4.10;;;28.60;52.00;;;;;;5032841;28;20029;-69
2022/08/27 12:23:38;;;;;;;6.40;4.25;;;28.60;52.40;;;;;;5033114;28;20107;-69
2022/08/27 12:25:24;;;;;;;5.15;3.95;;;28.50;51.80;;;;;;5032856;28;20045;-69
2022/08/27 12:28:03;;;;;;;5.35;3.10;;;28.50;52.30;;;;;;5033118;28;20025;-68
2022/08/27 12:30:33;;;;;;;10.82;3.97;;;28.50;53.20;;;;;;5033050;28;20025;-68
2022/08/27 12:33:09;;;;;;;4.95;3.92;;;28.50;52.60;;;;;;5033095;28;20214;-69
2022/08/27 12:35:51;;;;;;;7.30;4.15;;;28.50;53.10;;;;;;5034427;28;20086;-69
2022/08/27 12:38:48;;;;;;;6.68;3.50;;;28.60;52.70;;;;;;5052837;28;20025;-69
2022/08/27 12:41:30;;;;;;;6.22;4.15;;;28.60;52.70;;;;;;5035049;28;20079;-69
2022/08/27 12:44:26;;;;;;;7.63;4.30;;;28.70;51.90;;;;;;5052889;28;20415;-70
2022/08/27 12:47:02;;;;;;;5.18;4.05;;;28.60;52.00;;;;;;5051567;28;20075;-68
2022/08/27 12:49:38;;;;;;;6.38;3.90;;;28.70;52.20;;;;;;5052744;28;20475;-67
2022/08/27 12:52:18;;;;;;;5.50;3.78;;;28.70;52.60;;;;;;5052945;28;20025;-70
2022/08/27 12:55:29;;;;;;;5.65;3.60;;;28.70;51.40;;;;;;5052761;28;20045;-67
2022/08/27 12:58:02;;;;;;;4.63;3.63;;;28.70;52.50;;;;;;4991243;28;20110;-68
2022/08/27 13:00:34;;;;;;;5.57;3.72;;;28.80;51.80;;;;;;4991525;28;20022;-70
2022/08/27 13:03:22;;;;;;;6.43;3.85;;;28.80;51.90;;;;;;4991419;28;20030;-69